Terminal Aerodrome Forecast
Issued by NWS Jackson, KY

Home | Current Version | Previous Version | Text Only | Print | Product List | Glossary On
Versions: 1 2 3 4 5 6 7 8 9 10 11 12 13 14 15 16
000
FTUS43 KJKL 280540
TAFLOZ
TAF
KLOZ 280540Z 2806/2906 VRB03KT 6SM -SHRA BR SCT040 BKN090
     FM280800 VRB03KT 4SM BR VCSH SCT040 BKN110
     FM281300 VRB06KT 3SM SHRA BR VCTS SCT010CB OVC040
     FM281600 22008KT 3SM +SHRA BR VCTS SCT008 BKN020CB OVC040
     FM282200 25005KT 2SM +SHRA BR VCTS SCT005 OVC015CB
     FM290000 26005KT 2SM +SHRA BR VCTS BKN008CB OVC015=

USA.gov is the U.S. government's official web portal to all federal, state and local government web resources and services.